<?xml version='1.0' encoding='UTF-8'?>
<gpx xmlns="http://www.topografix.com/GPX/1/1" creator="www.balnam.be" version="1.1" xmlns:xsi="http://www.w3.org/2001/XMLSchema-instance" xsi:schemaLocation="http://www.topografix.com/GPX/1/1 http://www.topografix.com/GPX/1/1/gpx.xsd">
<trk>
<name>nfmhp1</name>
<cmt>r</cmt>
<desc>Hemptinne Chemin n°1 Rue de Meeffe / Rue de Hemptinne</desc>
<link href="https://chemins.be/hemptinne/chemin/1"/><trkseg>
<trkpt lat="50.602553" lon="4.985580"><time>2026-05-10T00:54:35Z</time></trkpt>
<trkpt lat="50.603174" lon="4.987057"><time>2026-05-10T01:04:35Z</time></trkpt>
<trkpt lat="50.603230" lon="4.988471"><time>2026-05-10T01:14:35Z</time></trkpt>
<trkpt lat="50.603190" lon="4.989749"><time>2026-05-10T01:24:35Z</time></trkpt>
<trkpt lat="50.603372" lon="4.991233"><time>2026-05-10T01:34:35Z</time></trkpt>
<trkpt lat="50.603842" lon="4.991198"><time>2026-05-10T01:44:35Z</time></trkpt>
<trkpt lat="50.605425" lon="4.994984"><time>2026-05-10T01:54:35Z</time></trkpt>
<trkpt lat="50.606705" lon="4.999324"><time>2026-05-10T02:04:35Z</time></trkpt>
<trkpt lat="50.607526" lon="5.002062"><time>2026-05-10T02:14:35Z</time></trkpt>
</trkseg>
</trk>
<trk>
<name>nfmhp10</name>
<cmt>r</cmt>
<desc>Hemptinne Chemin n°10 Rue du Weya</desc>
<link href="https://chemins.be/hemptinne/chemin/10"/><trkseg>
<trkpt lat="50.612946" lon="4.993954"><time>2026-05-10T00:54:35Z</time></trkpt>
<trkpt lat="50.609928" lon="4.990155"><time>2026-05-10T01:04:35Z</time></trkpt>
<trkpt lat="50.606852" lon="4.986894"><time>2026-05-10T01:14:35Z</time></trkpt>
<trkpt lat="50.605415" lon="4.984968"><time>2026-05-10T01:24:35Z</time></trkpt>
<trkpt lat="50.603849" lon="4.983506"><time>2026-05-10T01:34:35Z</time></trkpt>
<trkpt lat="50.601480" lon="4.979322"><time>2026-05-10T01:44:35Z</time></trkpt>
<trkpt lat="50.600509" lon="4.977643"><time>2026-05-10T01:54:35Z</time></trkpt>
<trkpt lat="50.599411" lon="4.976188"><time>2026-05-10T02:04:35Z</time></trkpt>
<trkpt lat="50.598919" lon="4.975603"><time>2026-05-10T02:14:35Z</time></trkpt>
<trkpt lat="50.598686" lon="4.975557"><time>2026-05-10T02:24:35Z</time></trkpt>
</trkseg>
</trk>
<trk>
<name>nfmhp11</name>
<cmt>v</cmt>
<desc>Hemptinne Chemin n°11 </desc>
<link href="https://chemins.be/hemptinne/chemin/11"/><trkseg>
<trkpt lat="50.616639" lon="4.977272"><time>2026-05-10T00:54:35Z</time></trkpt>
<trkpt lat="50.616762" lon="4.979548"><time>2026-05-10T01:04:35Z</time></trkpt>
<trkpt lat="50.616835" lon="4.981146"><time>2026-05-10T01:14:35Z</time></trkpt>
<trkpt lat="50.616276" lon="4.983131"><time>2026-05-10T01:24:35Z</time></trkpt>
<trkpt lat="50.616159" lon="4.984825"><time>2026-05-10T01:34:35Z</time></trkpt>
<trkpt lat="50.615360" lon="4.988037"><time>2026-05-10T01:44:35Z</time></trkpt>
<trkpt lat="50.614242" lon="4.990410"><time>2026-05-10T01:54:35Z</time></trkpt>
<trkpt lat="50.613706" lon="4.993031"><time>2026-05-10T02:04:35Z</time></trkpt>
<trkpt lat="50.612953" lon="4.994392"><time>2026-05-10T02:14:35Z</time></trkpt>
<trkpt lat="50.612205" lon="4.996360"><time>2026-05-10T02:24:35Z</time></trkpt>
</trkseg>
</trk>
<trk>
<name>nfmhp12</name>
<cmt>s</cmt>
<desc>Hemptinne Chemin n°12 </desc>
<link href="https://chemins.be/hemptinne/chemin/12"/><trkseg>
<trkpt lat="50.608680" lon="4.967407"><time>2026-05-10T00:54:35Z</time></trkpt>
<trkpt lat="50.608481" lon="4.971190"><time>2026-05-10T01:04:35Z</time></trkpt>
<trkpt lat="50.608664" lon="4.972210"><time>2026-05-10T01:14:35Z</time></trkpt>
<trkpt lat="50.609413" lon="4.975257"><time>2026-05-10T01:24:35Z</time></trkpt>
<trkpt lat="50.609485" lon="4.976925"><time>2026-05-10T01:34:35Z</time></trkpt>
<trkpt lat="50.609294" lon="4.979127"><time>2026-05-10T01:44:35Z</time></trkpt>
<trkpt lat="50.609661" lon="4.984571"><time>2026-05-10T01:54:35Z</time></trkpt>
<trkpt lat="50.610852" lon="4.990436"><time>2026-05-10T02:04:35Z</time></trkpt>
<trkpt lat="50.611659" lon="4.992538"><time>2026-05-10T02:14:35Z</time></trkpt>
<trkpt lat="50.612116" lon="4.996147"><time>2026-05-10T02:24:35Z</time></trkpt>
</trkseg>
</trk>
<trk>
<name>nfmhp13</name>
<cmt>q</cmt>
<desc>Hemptinne Sentier n°13 </desc>
<link href="https://chemins.be/hemptinne/sentier/13"/><trkseg>
<trkpt lat="50.604904" lon="4.989736"><time>2026-05-10T00:54:35Z</time></trkpt>
<trkpt lat="50.603685" lon="4.987488"><time>2026-05-10T01:04:35Z</time></trkpt>
</trkseg>
</trk>
<trk>
<name>nfmhp14</name>
<cmt>s</cmt>
<desc>Hemptinne Sentier n°14 </desc>
<link href="https://chemins.be/hemptinne/sentier/14"/><trkseg>
<trkpt lat="50.602390" lon="4.992613"><time>2026-05-10T00:54:35Z</time></trkpt>
<trkpt lat="50.602605" lon="4.994410"><time>2026-05-10T01:04:35Z</time></trkpt>
<trkpt lat="50.602796" lon="4.995656"><time>2026-05-10T01:14:35Z</time></trkpt>
<trkpt lat="50.603088" lon="4.996479"><time>2026-05-10T01:24:35Z</time></trkpt>
<trkpt lat="50.603059" lon="4.996902"><time>2026-05-10T01:34:35Z</time></trkpt>
<trkpt lat="50.602873" lon="4.998086"><time>2026-05-10T01:44:35Z</time></trkpt>
<trkpt lat="50.602828" lon="4.999767"><time>2026-05-10T01:54:35Z</time></trkpt>
</trkseg>
</trk>
<trk>
<name>nfmhp15</name>
<cmt>d</cmt>
<desc>Hemptinne Sentier n°15 </desc>
<link href="https://chemins.be/hemptinne/sentier/15"/><trkseg>
<trkpt lat="50.597516" lon="4.987690"><time>2026-05-10T00:54:35Z</time></trkpt>
<trkpt lat="50.596131" lon="4.986146"><time>2026-05-10T01:04:35Z</time></trkpt>
</trkseg>
</trk>
<trk>
<name>nfmhp16</name>
<cmt>r</cmt>
<desc>Hemptinne Sentier n°16 Rue de la Soile</desc>
<link href="https://chemins.be/hemptinne/sentier/16"/><trkseg>
<trkpt lat="50.600473" lon="4.991260"><time>2026-05-10T00:54:35Z</time></trkpt>
<trkpt lat="50.598839" lon="4.992580"><time>2026-05-10T01:04:35Z</time></trkpt>
<trkpt lat="50.598243" lon="4.993053"><time>2026-05-10T01:14:35Z</time></trkpt>
</trkseg>
</trk>
<trk>
<name>nfmhp17</name>
<cmt>v</cmt>
<desc>Hemptinne Sentier n°17 Ruelle de Messe / Rwalète / ?</desc>
<link href="https://chemins.be/hemptinne/sentier/17"/><trkseg>
<trkpt lat="50.601224" lon="4.990253"><time>2026-05-10T00:54:35Z</time></trkpt>
<trkpt lat="50.601008" lon="4.990335"><time>2026-05-10T01:04:35Z</time></trkpt>
<trkpt lat="50.600688" lon="4.989638"><time>2026-05-10T01:14:35Z</time></trkpt>
<trkpt lat="50.599951" lon="4.987962"><time>2026-05-10T01:24:35Z</time></trkpt>
</trkseg></trk>
<trk>
<name>nfmhp17</name>
<cmt>r</cmt>
<desc>Hemptinne Sentier n°17 Ruelle de Messe / Rwalète / ?</desc>
<link href="https://chemins.be/hemptinne/sentier/17"/><trkseg>
<trkpt lat="50.599951" lon="4.987962"><time>2026-05-10T01:24:35Z</time></trkpt>
<trkpt lat="50.600413" lon="4.987318"><time>2026-05-10T01:34:35Z</time></trkpt>
</trkseg></trk>
<trk>
<name>nfmhp17</name>
<cmt>d</cmt>
<desc>Hemptinne Sentier n°17 Ruelle de Messe / Rwalète / ?</desc>
<link href="https://chemins.be/hemptinne/sentier/17"/><trkseg>
<trkpt lat="50.600413" lon="4.987318"><time>2026-05-10T01:34:35Z</time></trkpt>
<trkpt lat="50.599916" lon="4.986097"><time>2026-05-10T01:44:35Z</time></trkpt>
<trkpt lat="50.599311" lon="4.985154"><time>2026-05-10T01:54:35Z</time></trkpt>
<trkpt lat="50.599010" lon="4.984484"><time>2026-05-10T02:04:35Z</time></trkpt>
<trkpt lat="50.598909" lon="4.984318"><time>2026-05-10T02:14:35Z</time></trkpt>
<trkpt lat="50.598491" lon="4.983705"><time>2026-05-10T02:24:35Z</time></trkpt>
</trkseg></trk>
<trk>
<name>nfmhp17</name>
<cmt>v</cmt>
<desc>Hemptinne Sentier n°17 Ruelle de Messe / Rwalète / ?</desc>
<link href="https://chemins.be/hemptinne/sentier/17"/><trkseg>
<trkpt lat="50.598491" lon="4.983705"><time>2026-05-10T02:24:35Z</time></trkpt>
<trkpt lat="50.598406" lon="4.983487"><time>2026-05-10T02:34:35Z</time></trkpt>
<trkpt lat="50.598436" lon="4.983416"><time>2026-05-10T02:44:35Z</time></trkpt>
<trkpt lat="50.598206" lon="4.982981"><time>2026-05-10T02:54:35Z</time></trkpt>
<trkpt lat="50.598089" lon="4.982395"><time>2026-05-10T03:04:35Z</time></trkpt>
<trkpt lat="50.597951" lon="4.982031"><time>2026-05-10T03:14:35Z</time></trkpt>
</trkseg></trk>
<trk>
<name>nfmhp17</name>
<cmt>d</cmt>
<desc>Hemptinne Sentier n°17 Ruelle de Messe / Rwalète / ?</desc>
<link href="https://chemins.be/hemptinne/sentier/17"/><trkseg>
<trkpt lat="50.597951" lon="4.982031"><time>2026-05-10T03:14:35Z</time></trkpt>
<trkpt lat="50.596756" lon="4.981761"><time>2026-05-10T03:24:35Z</time></trkpt>
</trkseg>
</trk>
<trk>
<name>nfmhp18</name>
<cmt>q</cmt>
<desc>Hemptinne Sentier n°18 </desc>
<link href="https://chemins.be/hemptinne/sentier/18"/><trkseg>
<trkpt lat="50.603263" lon="4.988966"><time>2026-05-10T00:54:35Z</time></trkpt>
<trkpt lat="50.602643" lon="4.988943"><time>2026-05-10T01:04:35Z</time></trkpt>
<trkpt lat="50.602309" lon="4.989094"><time>2026-05-10T01:14:35Z</time></trkpt>
</trkseg></trk>
<trk>
<name>nfmhp18</name>
<cmt>s</cmt>
<desc>Hemptinne Sentier n°18 </desc>
<link href="https://chemins.be/hemptinne/sentier/18"/><trkseg>
<trkpt lat="50.602309" lon="4.989094"><time>2026-05-10T01:14:35Z</time></trkpt>
<trkpt lat="50.602300" lon="4.989236"><time>2026-05-10T01:24:35Z</time></trkpt>
<trkpt lat="50.601402" lon="4.990580"><time>2026-05-10T01:34:35Z</time></trkpt>
</trkseg>
</trk>
<trk>
<name>nfmhp19</name>
<cmt>s</cmt>
<desc>Hemptinne Sentier n°19 </desc>
<link href="https://chemins.be/hemptinne/sentier/19"/><trkseg>
<trkpt lat="50.602582" lon="4.991853"><time>2026-05-10T00:54:35Z</time></trkpt>
<trkpt lat="50.604075" lon="4.991802"><time>2026-05-10T01:04:35Z</time></trkpt>
</trkseg>
</trk>
<trk>
<name>nfmhp2</name>
<cmt>r</cmt>
<desc>Hemptinne Chemin n°2 Rue de la Soile</desc>
<link href="https://chemins.be/hemptinne/chemin/2"/><trkseg>
<trkpt lat="50.603864" lon="4.991008"><time>2026-05-10T00:54:35Z</time></trkpt>
<trkpt lat="50.605375" lon="4.989149"><time>2026-05-10T01:04:35Z</time></trkpt>
<trkpt lat="50.607041" lon="4.986953"><time>2026-05-10T01:14:35Z</time></trkpt>
<trkpt lat="50.609914" lon="4.984278"><time>2026-05-10T01:24:35Z</time></trkpt>
<trkpt lat="50.613328" lon="4.981327"><time>2026-05-10T01:34:35Z</time></trkpt>
<trkpt lat="50.617754" lon="4.979038"><time>2026-05-10T01:44:35Z</time></trkpt>
</trkseg>
</trk>
<trk>
<name>nfmhp20</name>
<cmt>s</cmt>
<desc>Hemptinne Sentier n°20 </desc>
<link href="https://chemins.be/hemptinne/sentier/20"/><trkseg>
<trkpt lat="50.598405" lon="4.991218"><time>2026-05-10T00:54:35Z</time></trkpt>
<trkpt lat="50.598839" lon="4.992510"><time>2026-05-10T01:04:35Z</time></trkpt>
</trkseg></trk>
<trk>
<name>nfmhp20</name>
<cmt>q</cmt>
<desc>Hemptinne Sentier n°20 </desc>
<link href="https://chemins.be/hemptinne/sentier/20"/><trkseg>
<trkpt lat="50.598839" lon="4.992510"><time>2026-05-10T01:04:35Z</time></trkpt>
<trkpt lat="50.599276" lon="4.993769"><time>2026-05-10T01:14:35Z</time></trkpt>
</trkseg></trk>
<trk>
<name>nfmhp20</name>
<cmt>d</cmt>
<desc>Hemptinne Sentier n°20 </desc>
<link href="https://chemins.be/hemptinne/sentier/20"/><trkseg>
<trkpt lat="50.599276" lon="4.993769"><time>2026-05-10T01:14:35Z</time></trkpt>
<trkpt lat="50.599848" lon="4.995419"><time>2026-05-10T01:24:35Z</time></trkpt>
<trkpt lat="50.599698" lon="4.996646"><time>2026-05-10T01:34:35Z</time></trkpt>
<trkpt lat="50.600034" lon="4.997625"><time>2026-05-10T01:44:35Z</time></trkpt>
<trkpt lat="50.600035" lon="4.999122"><time>2026-05-10T01:54:35Z</time></trkpt>
</trkseg>
</trk>
<trk>
<name>nfmhp21</name>
<cmt>s</cmt>
<desc>Hemptinne Sentier n°21 </desc>
<link href="https://chemins.be/hemptinne/sentier/21"/><trkseg>
<trkpt lat="50.598271" lon="4.991188"><time>2026-05-10T00:54:35Z</time></trkpt>
<trkpt lat="50.597474" lon="4.990571"><time>2026-05-10T01:04:35Z</time></trkpt>
</trkseg>
</trk>
<trk>
<name>nfmhp22</name>
<cmt>s</cmt>
<desc>Hemptinne Sentier n°22 </desc>
<link href="https://chemins.be/hemptinne/sentier/22"/><trkseg>
<trkpt lat="50.598421" lon="4.979820"><time>2026-05-10T00:54:35Z</time></trkpt>
<trkpt lat="50.598391" lon="4.980370"><time>2026-05-10T01:04:35Z</time></trkpt>
<trkpt lat="50.598285" lon="4.981654"><time>2026-05-10T01:14:35Z</time></trkpt>
<trkpt lat="50.598292" lon="4.982120"><time>2026-05-10T01:24:35Z</time></trkpt>
<trkpt lat="50.598386" lon="4.983054"><time>2026-05-10T01:34:35Z</time></trkpt>
<trkpt lat="50.598441" lon="4.983391"><time>2026-05-10T01:44:35Z</time></trkpt>
</trkseg></trk>
<trk>
<name>nfmhp22</name>
<cmt>v</cmt>
<desc>Hemptinne Sentier n°22 </desc>
<link href="https://chemins.be/hemptinne/sentier/22"/><trkseg>
<trkpt lat="50.598441" lon="4.983391"><time>2026-05-10T01:44:35Z</time></trkpt>
<trkpt lat="50.598405" lon="4.983488"><time>2026-05-10T01:54:35Z</time></trkpt>
<trkpt lat="50.598493" lon="4.983708"><time>2026-05-10T02:04:35Z</time></trkpt>
<trkpt lat="50.598273" lon="4.984810"><time>2026-05-10T02:14:35Z</time></trkpt>
<trkpt lat="50.597507" lon="4.987760"><time>2026-05-10T02:24:35Z</time></trkpt>
</trkseg></trk>
<trk>
<name>nfmhp22</name>
<cmt>s</cmt>
<desc>Hemptinne Sentier n°22 </desc>
<link href="https://chemins.be/hemptinne/sentier/22"/><trkseg>
<trkpt lat="50.597507" lon="4.987760"><time>2026-05-10T02:24:35Z</time></trkpt>
<trkpt lat="50.598066" lon="4.990734"><time>2026-05-10T02:34:35Z</time></trkpt>
<trkpt lat="50.598316" lon="4.991133"><time>2026-05-10T02:44:35Z</time></trkpt>
</trkseg>
</trk>
<trk>
<name>nfmhp23</name>
<cmt>v</cmt>
<desc>Hemptinne Sentier n°23 Sentier n°23 / Rue dans les Prés / Grand-Place</desc>
<link href="https://chemins.be/hemptinne/sentier/23"/><trkseg>
<trkpt lat="50.599303" lon="4.982939"><time>2026-05-10T00:54:35Z</time></trkpt>
<trkpt lat="50.599463" lon="4.983336"><time>2026-05-10T01:04:35Z</time></trkpt>
<trkpt lat="50.600260" lon="4.985013"><time>2026-05-10T01:14:35Z</time></trkpt>
<trkpt lat="50.600401" lon="4.984863"><time>2026-05-10T01:24:35Z</time></trkpt>
<trkpt lat="50.600516" lon="4.985155"><time>2026-05-10T01:34:35Z</time></trkpt>
<trkpt lat="50.600676" lon="4.985217"><time>2026-05-10T01:44:35Z</time></trkpt>
</trkseg></trk>
<trk>
<name>nfmhp23</name>
<cmt>r</cmt>
<desc>Hemptinne Sentier n°23 Sentier n°23 / Rue dans les Prés / Grand-Place</desc>
<link href="https://chemins.be/hemptinne/sentier/23"/><trkseg>
<trkpt lat="50.600676" lon="4.985217"><time>2026-05-10T01:44:35Z</time></trkpt>
<trkpt lat="50.600800" lon="4.985586"><time>2026-05-10T01:54:35Z</time></trkpt>
<trkpt lat="50.601005" lon="4.985955"><time>2026-05-10T02:04:35Z</time></trkpt>
<trkpt lat="50.601035" lon="4.986539"><time>2026-05-10T02:14:35Z</time></trkpt>
<trkpt lat="50.601198" lon="4.986791"><time>2026-05-10T02:24:35Z</time></trkpt>
<trkpt lat="50.601511" lon="4.987106"><time>2026-05-10T02:34:35Z</time></trkpt>
</trkseg></trk>
<trk>
<name>nfmhp23</name>
<cmt>v</cmt>
<desc>Hemptinne Sentier n°23 Sentier n°23 / Rue dans les Prés / Grand-Place</desc>
<link href="https://chemins.be/hemptinne/sentier/23"/><trkseg>
<trkpt lat="50.601511" lon="4.987106"><time>2026-05-10T02:34:35Z</time></trkpt>
<trkpt lat="50.601904" lon="4.987634"><time>2026-05-10T02:44:35Z</time></trkpt>
<trkpt lat="50.601732" lon="4.987801"><time>2026-05-10T02:54:35Z</time></trkpt>
<trkpt lat="50.602220" lon="4.989321"><time>2026-05-10T03:04:35Z</time></trkpt>
<trkpt lat="50.602442" lon="4.990147"><time>2026-05-10T03:14:35Z</time></trkpt>
<trkpt lat="50.602415" lon="4.990877"><time>2026-05-10T03:24:35Z</time></trkpt>
</trkseg></trk>
<trk>
<name>nfmhp23</name>
<cmt>s</cmt>
<desc>Hemptinne Sentier n°23 Sentier n°23 / Rue dans les Prés / Grand-Place</desc>
<link href="https://chemins.be/hemptinne/sentier/23"/><trkseg>
<trkpt lat="50.602415" lon="4.990877"><time>2026-05-10T03:24:35Z</time></trkpt>
<trkpt lat="50.602565" lon="4.991725"><time>2026-05-10T03:34:35Z</time></trkpt>
</trkseg>
</trk>
<trk>
<name>nfmhp25</name>
<cmt>s</cmt>
<desc>Hemptinne Sentier n°25 </desc>
<link href="https://chemins.be/hemptinne/sentier/25"/><trkseg>
<trkpt lat="50.600872" lon="4.983821"><time>2026-05-10T00:54:35Z</time></trkpt>
<trkpt lat="50.600113" lon="4.984531"><time>2026-05-10T01:04:35Z</time></trkpt>
</trkseg>
</trk>
<trk>
<name>nfmhp26</name>
<cmt>v</cmt>
<desc>Hemptinne Sentier n°26 </desc>
<link href="https://chemins.be/hemptinne/sentier/26"/><trkseg>
<trkpt lat="50.601318" lon="4.982739"><time>2026-05-10T00:54:35Z</time></trkpt>
<trkpt lat="50.600731" lon="4.983310"><time>2026-05-10T01:04:35Z</time></trkpt>
</trkseg>
</trk>
<trk>
<name>nfmhp27</name>
<cmt>v</cmt>
<desc>Hemptinne Sentier n°27 </desc>
<link href="https://chemins.be/hemptinne/sentier/27"/><trkseg>
<trkpt lat="50.598954" lon="4.981041"><time>2026-05-10T00:54:35Z</time></trkpt>
<trkpt lat="50.599594" lon="4.980711"><time>2026-05-10T01:04:35Z</time></trkpt>
</trkseg>
</trk>
<trk>
<name>nfmhp28</name>
<cmt>v</cmt>
<desc>Hemptinne Sentier n°28 </desc>
<link href="https://chemins.be/hemptinne/sentier/28"/><trkseg>
<trkpt lat="50.599509" lon="4.983167"><time>2026-05-10T00:54:35Z</time></trkpt>
<trkpt lat="50.600313" lon="4.982471"><time>2026-05-10T01:04:35Z</time></trkpt>
</trkseg>
</trk>
<trk>
<name>nfmhp29</name>
<cmt>v</cmt>
<desc>Hemptinne Sentier n°29 Sans nom</desc>
<link href="https://chemins.be/hemptinne/sentier/29"/><trkseg>
<trkpt lat="50.599126" lon="4.982484"><time>2026-05-10T00:54:35Z</time></trkpt>
<trkpt lat="50.598846" lon="4.982777"><time>2026-05-10T01:04:35Z</time></trkpt>
<trkpt lat="50.598447" lon="4.983337"><time>2026-05-10T01:14:35Z</time></trkpt>
</trkseg>
</trk>
<trk>
<name>nfmhp3</name>
<cmt>v</cmt>
<desc>Hemptinne Chemin n°3 Rue Trois-Ris / Rue des trois Ris / Rue Saint-Georges / Rue de la Soile / ?</desc>
<link href="https://chemins.be/hemptinne/chemin/3"/><trkseg>
<trkpt lat="50.596563" lon="4.987649"><time>2026-05-10T00:54:35Z</time></trkpt>
<trkpt lat="50.597462" lon="4.987745"><time>2026-05-10T01:04:35Z</time></trkpt>
<trkpt lat="50.598168" lon="4.988546"><time>2026-05-10T01:14:35Z</time></trkpt>
</trkseg></trk>
<trk>
<name>nfmhp3</name>
<cmt>r</cmt>
<desc>Hemptinne Chemin n°3 Rue Trois-Ris / Rue des trois Ris / Rue Saint-Georges / Rue de la Soile / ?</desc>
<link href="https://chemins.be/hemptinne/chemin/3"/><trkseg>
<trkpt lat="50.598168" lon="4.988546"><time>2026-05-10T01:14:35Z</time></trkpt>
<trkpt lat="50.598802" lon="4.989317"><time>2026-05-10T01:24:35Z</time></trkpt>
<trkpt lat="50.599144" lon="4.989321"><time>2026-05-10T01:34:35Z</time></trkpt>
<trkpt lat="50.600518" lon="4.991246"><time>2026-05-10T01:44:35Z</time></trkpt>
<trkpt lat="50.601275" lon="4.990818"><time>2026-05-10T01:54:35Z</time></trkpt>
</trkseg></trk>
<trk>
<name>nfmhp3</name>
<cmt>v</cmt>
<desc>Hemptinne Chemin n°3 Rue Trois-Ris / Rue des trois Ris / Rue Saint-Georges / Rue de la Soile / ?</desc>
<link href="https://chemins.be/hemptinne/chemin/3"/><trkseg>
<trkpt lat="50.601275" lon="4.990818"><time>2026-05-10T01:54:35Z</time></trkpt>
<trkpt lat="50.601516" lon="4.991302"><time>2026-05-10T02:04:35Z</time></trkpt>
<trkpt lat="50.601856" lon="4.991561"><time>2026-05-10T02:14:35Z</time></trkpt>
<trkpt lat="50.602430" lon="4.991851"><time>2026-05-10T02:24:35Z</time></trkpt>
<trkpt lat="50.602372" lon="4.992528"><time>2026-05-10T02:34:35Z</time></trkpt>
<trkpt lat="50.602430" lon="4.991837"><time>2026-05-10T02:44:35Z</time></trkpt>
<trkpt lat="50.602574" lon="4.991740"><time>2026-05-10T02:54:35Z</time></trkpt>
<trkpt lat="50.603026" lon="4.991322"><time>2026-05-10T03:04:35Z</time></trkpt>
</trkseg>
</trk>
<trk>
<name>nfmhp30</name>
<cmt>s</cmt>
<desc>Hemptinne Sentier n°30 </desc>
<link href="https://chemins.be/hemptinne/sentier/30"/><trkseg>
<trkpt lat="50.598957" lon="4.976959"><time>2026-05-10T00:54:35Z</time></trkpt>
<trkpt lat="50.598786" lon="4.976957"><time>2026-05-10T01:04:35Z</time></trkpt>
<trkpt lat="50.598337" lon="4.976838"><time>2026-05-10T01:14:35Z</time></trkpt>
<trkpt lat="50.597907" lon="4.976691"><time>2026-05-10T01:24:35Z</time></trkpt>
<trkpt lat="50.597736" lon="4.976689"><time>2026-05-10T01:34:35Z</time></trkpt>
</trkseg></trk>
<trk>
<name>nfmhp30</name>
<cmt>q</cmt>
<desc>Hemptinne Sentier n°30 </desc>
<link href="https://chemins.be/hemptinne/sentier/30"/><trkseg>
<trkpt lat="50.597736" lon="4.976689"><time>2026-05-10T01:34:35Z</time></trkpt>
<trkpt lat="50.597565" lon="4.976701"><time>2026-05-10T01:44:35Z</time></trkpt>
</trkseg>
</trk>
<trk>
<name>nfmhp31</name>
<cmt>s</cmt>
<desc>Hemptinne Sentier n°31 </desc>
<link href="https://chemins.be/hemptinne/sentier/31"/><trkseg>
<trkpt lat="50.599054" lon="4.977243"><time>2026-05-10T00:54:35Z</time></trkpt>
<trkpt lat="50.598918" lon="4.977481"><time>2026-05-10T01:04:35Z</time></trkpt>
<trkpt lat="50.598675" lon="4.977577"><time>2026-05-10T01:14:35Z</time></trkpt>
<trkpt lat="50.598581" lon="4.978381"><time>2026-05-10T01:24:35Z</time></trkpt>
<trkpt lat="50.598587" lon="4.978946"><time>2026-05-10T01:34:35Z</time></trkpt>
<trkpt lat="50.598449" lon="4.979467"><time>2026-05-10T01:44:35Z</time></trkpt>
<trkpt lat="50.598430" lon="4.979735"><time>2026-05-10T01:54:35Z</time></trkpt>
</trkseg>
</trk>
<trk>
<name>nfmhp32</name>
<cmt>s</cmt>
<desc>Hemptinne Sentier n°32 </desc>
<link href="https://chemins.be/hemptinne/sentier/32"/><trkseg>
<trkpt lat="50.598857" lon="4.980574"><time>2026-05-10T00:54:35Z</time></trkpt>
<trkpt lat="50.598409" lon="4.980356"><time>2026-05-10T01:04:35Z</time></trkpt>
</trkseg></trk>
<trk>
<name>nfmhp32</name>
<cmt>d</cmt>
<desc>Hemptinne Sentier n°32 </desc>
<link href="https://chemins.be/hemptinne/sentier/32"/><trkseg>
<trkpt lat="50.598409" lon="4.980356"><time>2026-05-10T01:04:35Z</time></trkpt>
<trkpt lat="50.598121" lon="4.980352"><time>2026-05-10T01:14:35Z</time></trkpt>
<trkpt lat="50.597806" lon="4.980461"><time>2026-05-10T01:24:35Z</time></trkpt>
<trkpt lat="50.596924" lon="4.980648"><time>2026-05-10T01:34:35Z</time></trkpt>
</trkseg>
</trk>
<trk>
<name>nfmhp33</name>
<cmt>v</cmt>
<desc>Hemptinne Sentier n°33 Sentier n°33</desc>
<link href="https://chemins.be/hemptinne/sentier/33"/><trkseg>
<trkpt lat="50.599120" lon="4.979598"><time>2026-05-10T00:54:35Z</time></trkpt>
<trkpt lat="50.599021" lon="4.979547"><time>2026-05-10T01:04:35Z</time></trkpt>
<trkpt lat="50.598763" lon="4.979683"><time>2026-05-10T01:14:35Z</time></trkpt>
<trkpt lat="50.598435" lon="4.979761"><time>2026-05-10T01:24:35Z</time></trkpt>
</trkseg>
</trk>
<trk>
<name>nfmhp34</name>
<cmt>s</cmt>
<desc>Hemptinne Sentier n°34 </desc>
<link href="https://chemins.be/hemptinne/sentier/34"/><trkseg>
<trkpt lat="50.597679" lon="4.975587"><time>2026-05-10T00:54:35Z</time></trkpt>
<trkpt lat="50.597727" lon="4.976703"><time>2026-05-10T01:04:35Z</time></trkpt>
<trkpt lat="50.597836" lon="4.978159"><time>2026-05-10T01:14:35Z</time></trkpt>
<trkpt lat="50.598022" lon="4.980337"><time>2026-05-10T01:24:35Z</time></trkpt>
</trkseg>
</trk>
<trk>
<name>nfmhp35</name>
<cmt>v</cmt>
<desc>Hemptinne Sentier n°35 </desc>
<link href="https://chemins.be/hemptinne/sentier/35"/><trkseg>
<trkpt lat="50.598292" lon="4.975255"><time>2026-05-10T00:54:35Z</time></trkpt>
<trkpt lat="50.597947" lon="4.974065"><time>2026-05-10T01:04:35Z</time></trkpt>
</trkseg></trk>
<trk>
<name>nfmhp35</name>
<cmt>s</cmt>
<desc>Hemptinne Sentier n°35 </desc>
<link href="https://chemins.be/hemptinne/sentier/35"/><trkseg>
<trkpt lat="50.597947" lon="4.974065"><time>2026-05-10T01:04:35Z</time></trkpt>
<trkpt lat="50.597629" lon="4.972930"><time>2026-05-10T01:14:35Z</time></trkpt>
<trkpt lat="50.597425" lon="4.972391"><time>2026-05-10T01:24:35Z</time></trkpt>
<trkpt lat="50.596776" lon="4.971126"><time>2026-05-10T01:34:35Z</time></trkpt>
</trkseg>
</trk>
<trk>
<name>nfmhp36</name>
<cmt>d</cmt>
<desc>Hemptinne Sentier n°36 </desc>
<link href="https://chemins.be/hemptinne/sentier/36"/><trkseg>
<trkpt lat="50.610043" lon="4.990454"><time>2026-05-10T00:54:35Z</time></trkpt>
<trkpt lat="50.608168" lon="4.986219"><time>2026-05-10T01:04:35Z</time></trkpt>
<trkpt lat="50.608109" lon="4.985625"><time>2026-05-10T01:14:35Z</time></trkpt>
</trkseg></trk>
<trk>
<name>nfmhp36</name>
<cmt>s</cmt>
<desc>Hemptinne Sentier n°36 </desc>
<link href="https://chemins.be/hemptinne/sentier/36"/><trkseg>
<trkpt lat="50.608109" lon="4.985625"><time>2026-05-10T01:14:35Z</time></trkpt>
<trkpt lat="50.607719" lon="4.984461"><time>2026-05-10T01:24:35Z</time></trkpt>
<trkpt lat="50.607509" lon="4.983483"><time>2026-05-10T01:34:35Z</time></trkpt>
<trkpt lat="50.605588" lon="4.979446"><time>2026-05-10T01:44:35Z</time></trkpt>
<trkpt lat="50.603146" lon="4.975431"><time>2026-05-10T01:54:35Z</time></trkpt>
<trkpt lat="50.601614" lon="4.972671"><time>2026-05-10T02:04:35Z</time></trkpt>
<trkpt lat="50.600336" lon="4.971072"><time>2026-05-10T02:14:35Z</time></trkpt>
<trkpt lat="50.599215" lon="4.968798"><time>2026-05-10T02:24:35Z</time></trkpt>
</trkseg>
</trk>
<trk>
<name>nfmhp37</name>
<cmt>s</cmt>
<desc>Hemptinne Sentier n°37 </desc>
<link href="https://chemins.be/hemptinne/sentier/37"/><trkseg>
<trkpt lat="50.605488" lon="4.994928"><time>2026-05-10T00:54:35Z</time></trkpt>
<trkpt lat="50.610608" lon="4.995703"><time>2026-05-10T01:04:35Z</time></trkpt>
<trkpt lat="50.611981" lon="4.996230"><time>2026-05-10T01:14:35Z</time></trkpt>
</trkseg>
</trk>
<trk>
<name>nfmhp38</name>
<cmt>s</cmt>
<desc>Hemptinne Sentier n°38 </desc>
<link href="https://chemins.be/hemptinne/sentier/38"/><trkseg>
<trkpt lat="50.602372" lon="4.984024"><time>2026-05-10T00:54:35Z</time></trkpt>
<trkpt lat="50.603814" lon="4.983365"><time>2026-05-10T01:04:35Z</time></trkpt>
</trkseg>
</trk>
<trk>
<name>nfmhp39</name>
<cmt>s</cmt>
<desc>Hemptinne Sentier n°39 </desc>
<link href="https://chemins.be/hemptinne/sentier/39"/><trkseg>
<trkpt lat="50.600501" lon="4.977487"><time>2026-05-10T00:54:35Z</time></trkpt>
<trkpt lat="50.600791" lon="4.976898"><time>2026-05-10T01:04:35Z</time></trkpt>
<trkpt lat="50.603191" lon="4.975403"><time>2026-05-10T01:14:35Z</time></trkpt>
<trkpt lat="50.604565" lon="4.975605"><time>2026-05-10T01:24:35Z</time></trkpt>
<trkpt lat="50.607418" lon="4.975133"><time>2026-05-10T01:34:35Z</time></trkpt>
</trkseg>
</trk>
<trk>
<name>nfmhp4</name>
<cmt>r</cmt>
<desc>Hemptinne Chemin n°4 Chemin de Hemptinne aux Tombes</desc>
<link href="https://chemins.be/hemptinne/chemin/4"/><trkseg>
<trkpt lat="50.598058" lon="4.992287"><time>2026-05-10T00:54:35Z</time></trkpt>
<trkpt lat="50.598306" lon="4.993011"><time>2026-05-10T01:04:35Z</time></trkpt>
</trkseg></trk>
<trk>
<name>nfmhp4</name>
<cmt>v</cmt>
<desc>Hemptinne Chemin n°4 Chemin de Hemptinne aux Tombes</desc>
<link href="https://chemins.be/hemptinne/chemin/4"/><trkseg>
<trkpt lat="50.598306" lon="4.993011"><time>2026-05-10T01:04:35Z</time></trkpt>
<trkpt lat="50.598650" lon="4.994188"><time>2026-05-10T01:14:35Z</time></trkpt>
<trkpt lat="50.598720" lon="4.994641"><time>2026-05-10T01:24:35Z</time></trkpt>
</trkseg>
</trk>
<trk>
<name>nfmhp40</name>
<cmt>v</cmt>
<desc>Hemptinne Sentier n°40 Ruelle de Messe</desc>
<link href="https://chemins.be/hemptinne/sentier/40"/><trkseg>
<trkpt lat="50.601249" lon="4.990705"><time>2026-05-10T00:54:35Z</time></trkpt>
<trkpt lat="50.601234" lon="4.990210"><time>2026-05-10T01:04:35Z</time></trkpt>
</trkseg></trk>
<trk>
<name>nfmhp40</name>
<cmt>s</cmt>
<desc>Hemptinne Sentier n°40 Ruelle de Messe</desc>
<link href="https://chemins.be/hemptinne/sentier/40"/><trkseg>
<trkpt lat="50.601234" lon="4.990210"><time>2026-05-10T01:04:35Z</time></trkpt>
<trkpt lat="50.601208" lon="4.989942"><time>2026-05-10T01:14:35Z</time></trkpt>
</trkseg>
</trk>
<trk>
<name>nfmhp41</name>
<cmt>s</cmt>
<desc>Hemptinne Sentier n°41 </desc>
<link href="https://chemins.be/hemptinne/sentier/41"/><trkseg>
<trkpt lat="50.603359" lon="4.991199"><time>2026-05-10T00:54:35Z</time></trkpt>
<trkpt lat="50.603591" lon="4.991598"><time>2026-05-10T01:04:35Z</time></trkpt>
<trkpt lat="50.603967" lon="4.991814"><time>2026-05-10T01:14:35Z</time></trkpt>
</trkseg>
</trk>
<trk>
<name>nfmhp42</name>
<cmt>s</cmt>
<desc>Hemptinne Sentier n°42 </desc>
<link href="https://chemins.be/hemptinne/sentier/42"/><trkseg>
<trkpt lat="50.603930" lon="4.983536"><time>2026-05-10T00:54:35Z</time></trkpt>
<trkpt lat="50.603998" lon="4.984356"><time>2026-05-10T01:04:35Z</time></trkpt>
<trkpt lat="50.604063" lon="4.985586"><time>2026-05-10T01:14:35Z</time></trkpt>
<trkpt lat="50.604015" lon="4.986277"><time>2026-05-10T01:24:35Z</time></trkpt>
<trkpt lat="50.603703" lon="4.987474"><time>2026-05-10T01:34:35Z</time></trkpt>
<trkpt lat="50.603306" lon="4.987638"><time>2026-05-10T01:44:35Z</time></trkpt>
</trkseg>
</trk>
<trk>
<name>nfmhp5</name>
<cmt>r</cmt>
<desc>Hemptinne Chemin n°5 Rue de la Gohiette</desc>
<link href="https://chemins.be/hemptinne/chemin/5"/><trkseg>
<trkpt lat="50.610288" lon="4.969447"><time>2026-05-10T00:54:35Z</time></trkpt>
<trkpt lat="50.608764" lon="4.972141"><time>2026-05-10T01:04:35Z</time></trkpt>
<trkpt lat="50.605627" lon="4.978924"><time>2026-05-10T01:14:35Z</time></trkpt>
<trkpt lat="50.604939" lon="4.981486"><time>2026-05-10T01:24:35Z</time></trkpt>
<trkpt lat="50.602508" lon="4.985495"><time>2026-05-10T01:34:35Z</time></trkpt>
<trkpt lat="50.602049" lon="4.985687"><time>2026-05-10T01:44:35Z</time></trkpt>
<trkpt lat="50.601403" lon="4.985444"><time>2026-05-10T01:54:35Z</time></trkpt>
<trkpt lat="50.600992" lon="4.986002"><time>2026-05-10T02:04:35Z</time></trkpt>
<trkpt lat="50.601026" lon="4.986574"><time>2026-05-10T02:14:35Z</time></trkpt>
<trkpt lat="50.600395" lon="4.987289"><time>2026-05-10T02:24:35Z</time></trkpt>
<trkpt lat="50.599553" lon="4.988465"><time>2026-05-10T02:34:35Z</time></trkpt>
<trkpt lat="50.599153" lon="4.989293"><time>2026-05-10T02:44:35Z</time></trkpt>
<trkpt lat="50.598881" lon="4.989614"><time>2026-05-10T02:54:35Z</time></trkpt>
<trkpt lat="50.598049" lon="4.992344"><time>2026-05-10T03:04:35Z</time></trkpt>
</trkseg>
</trk>
<trk>
<name>nfmhp6</name>
<cmt>r</cmt>
<desc>Hemptinne Chemin n°6 Rue des Cortys</desc>
<link href="https://chemins.be/hemptinne/chemin/6"/><trkseg>
<trkpt lat="50.600116" lon="4.977101"><time>2026-05-10T00:54:35Z</time></trkpt>
<trkpt lat="50.599449" lon="4.977488"><time>2026-05-10T01:04:35Z</time></trkpt>
<trkpt lat="50.599891" lon="4.978836"><time>2026-05-10T01:14:35Z</time></trkpt>
<trkpt lat="50.601318" lon="4.982711"><time>2026-05-10T01:24:35Z</time></trkpt>
<trkpt lat="50.601603" lon="4.983195"><time>2026-05-10T01:34:35Z</time></trkpt>
<trkpt lat="50.601915" lon="4.983778"><time>2026-05-10T01:44:35Z</time></trkpt>
<trkpt lat="50.602255" lon="4.984065"><time>2026-05-10T01:54:35Z</time></trkpt>
<trkpt lat="50.602448" lon="4.985056"><time>2026-05-10T02:04:35Z</time></trkpt>
</trkseg>
</trk>
<trk>
<name>nfmhp7</name>
<cmt>r</cmt>
<desc>Hemptinne Chemin n°7 Rue de la Gohiette</desc>
<link href="https://chemins.be/hemptinne/chemin/7"/><trkseg>
<trkpt lat="50.598596" lon="4.975556"><time>2026-05-10T00:54:35Z</time></trkpt>
<trkpt lat="50.599170" lon="4.977527"><time>2026-05-10T01:04:35Z</time></trkpt>
<trkpt lat="50.599214" lon="4.979434"><time>2026-05-10T01:14:35Z</time></trkpt>
<trkpt lat="50.599612" lon="4.980683"><time>2026-05-10T01:24:35Z</time></trkpt>
<trkpt lat="50.600730" lon="4.983381"><time>2026-05-10T01:34:35Z</time></trkpt>
<trkpt lat="50.601041" lon="4.984148"><time>2026-05-10T01:44:35Z</time></trkpt>
<trkpt lat="50.601413" lon="4.985283"><time>2026-05-10T01:54:35Z</time></trkpt>
</trkseg>
</trk>
<trk>
<name>nfmhp8</name>
<cmt>r</cmt>
<desc>Hemptinne Chemin n°8 Rue dans les Prés</desc>
<link href="https://chemins.be/hemptinne/chemin/8"/><trkseg>
<trkpt lat="50.599132" lon="4.979532"><time>2026-05-10T00:54:35Z</time></trkpt>
<trkpt lat="50.598866" lon="4.980560"><time>2026-05-10T01:04:35Z</time></trkpt>
<trkpt lat="50.599241" lon="4.982726"><time>2026-05-10T01:14:35Z</time></trkpt>
</trkseg>
</trk>
<trk>
<name>nfmhp9</name>
<cmt>r</cmt>
<desc>Hemptinne Chemin n°9 Rue de Champion</desc>
<link href="https://chemins.be/hemptinne/chemin/9"/><trkseg>
<trkpt lat="50.599393" lon="4.976103"><time>2026-05-10T00:54:35Z</time></trkpt>
<trkpt lat="50.597481" lon="4.970386"><time>2026-05-10T01:04:35Z</time></trkpt>
</trkseg>
</trk>
<trk>
<name>nfmhpi1</name>
<cmt>v</cmt>
<desc>Hemptinne Sentier n°i1 </desc>
<link href="https://chemins.be/hemptinne/sentier/i1"/><trkseg>
<trkpt lat="50.598924" lon="4.976450"><time>2026-05-10T00:54:35Z</time></trkpt>
<trkpt lat="50.599050" lon="4.976325"><time>2026-05-10T01:04:35Z</time></trkpt>
<trkpt lat="50.599132" lon="4.976227"><time>2026-05-10T01:14:35Z</time></trkpt>
<trkpt lat="50.599240" lon="4.976073"><time>2026-05-10T01:24:35Z</time></trkpt>
</trkseg>
</trk>
<trk>
<name>nfmhpi2</name>
<cmt>q</cmt>
<desc>Hemptinne Chemin n°i2 </desc>
<link href="https://chemins.be/hemptinne/chemin/i2"/><trkseg>
<trkpt lat="50.597807" lon="4.981078"><time>2026-05-10T00:54:35Z</time></trkpt>
<trkpt lat="50.596927" lon="4.980866"><time>2026-05-10T01:04:35Z</time></trkpt>
</trkseg>
</trk>
<trk>
<name>nfmhpi3</name>
<cmt>q</cmt>
<desc>Hemptinne Chemin n°i3 </desc>
<link href="https://chemins.be/hemptinne/chemin/i3"/><trkseg>
<trkpt lat="50.607648" lon="5.002393"><time>2026-05-10T00:54:35Z</time></trkpt>
<trkpt lat="50.610469" lon="5.000367"><time>2026-05-10T01:04:35Z</time></trkpt>
<trkpt lat="50.612201" lon="4.996367"><time>2026-05-10T01:14:35Z</time></trkpt>
</trkseg>
</trk>
<trk>
<name>nfmhpi4</name>
<cmt>v</cmt>
<desc>Hemptinne Sentier n°i4 </desc>
<link href="https://chemins.be/hemptinne/sentier/i4"/><trkseg>
<trkpt lat="50.598426" lon="4.979779"><time>2026-05-10T00:54:35Z</time></trkpt>
<trkpt lat="50.598219" lon="4.979732"><time>2026-05-10T01:04:35Z</time></trkpt>
<trkpt lat="50.598087" lon="4.979790"><time>2026-05-10T01:14:35Z</time></trkpt>
<trkpt lat="50.598026" lon="4.979953"><time>2026-05-10T01:24:35Z</time></trkpt>
<trkpt lat="50.598186" lon="4.980704"><time>2026-05-10T01:34:35Z</time></trkpt>
<trkpt lat="50.598192" lon="4.980942"><time>2026-05-10T01:44:35Z</time></trkpt>
<trkpt lat="50.597956" lon="4.980966"><time>2026-05-10T01:54:35Z</time></trkpt>
<trkpt lat="50.597829" lon="4.981108"><time>2026-05-10T02:04:35Z</time></trkpt>
<trkpt lat="50.597816" lon="4.981297"><time>2026-05-10T02:14:35Z</time></trkpt>
<trkpt lat="50.597812" lon="4.981366"><time>2026-05-10T02:24:35Z</time></trkpt>
<trkpt lat="50.597837" lon="4.981458"><time>2026-05-10T02:34:35Z</time></trkpt>
<trkpt lat="50.598013" lon="4.981540"><time>2026-05-10T02:44:35Z</time></trkpt>
<trkpt lat="50.597956" lon="4.982021"><time>2026-05-10T02:54:35Z</time></trkpt>
</trkseg>
</trk>
<trk>
<name>nfmhpi5</name>
<cmt>v</cmt>
<desc>Hemptinne Sentier n°i5 </desc>
<link href="https://chemins.be/hemptinne/sentier/i5"/><trkseg>
<trkpt lat="50.600632" lon="4.987063"><time>2026-05-10T00:54:35Z</time></trkpt>
<trkpt lat="50.600237" lon="4.986017"><time>2026-05-10T01:04:35Z</time></trkpt>
<trkpt lat="50.599699" lon="4.985502"><time>2026-05-10T01:14:35Z</time></trkpt>
<trkpt lat="50.599301" lon="4.984961"><time>2026-05-10T01:24:35Z</time></trkpt>
<trkpt lat="50.599240" lon="4.984633"><time>2026-05-10T01:34:35Z</time></trkpt>
<trkpt lat="50.599025" lon="4.984451"><time>2026-05-10T01:44:35Z</time></trkpt>
<trkpt lat="50.598933" lon="4.984027"><time>2026-05-10T01:54:35Z</time></trkpt>
<trkpt lat="50.598703" lon="4.983686"><time>2026-05-10T02:04:35Z</time></trkpt>
<trkpt lat="50.598431" lon="4.983399"><time>2026-05-10T02:14:35Z</time></trkpt>
</trkseg>
</trk>
<trk>
<name>nfmhpi6</name>
<cmt>v</cmt>
<desc>Hemptinne Sentier n°i6 </desc>
<link href="https://chemins.be/hemptinne/sentier/i6"/><trkseg>
<trkpt lat="50.602403" lon="4.990872"><time>2026-05-10T00:54:35Z</time></trkpt>
<trkpt lat="50.601760" lon="4.990615"><time>2026-05-10T01:04:35Z</time></trkpt>
<trkpt lat="50.601481" lon="4.990625"><time>2026-05-10T01:14:35Z</time></trkpt>
<trkpt lat="50.601438" lon="4.990683"><time>2026-05-10T01:24:35Z</time></trkpt>
</trkseg>
</trk>
<trk>
<name>nfmhpp1</name>
<cmt>q</cmt>
<desc>Hemptinne Chemin particulier n°p1 </desc>
<link href="https://chemins.be/hemptinne/chemin/p1"/><trkseg>
<trkpt lat="50.603154" lon="4.987580"><time>2026-05-10T00:54:35Z</time></trkpt>
<trkpt lat="50.601937" lon="4.988087"><time>2026-05-10T01:04:35Z</time></trkpt>
</trkseg>
</trk>
</gpx>